createdAt,value
2019-03-25T00:02:25.632Z,90.10
2019-03-25T00:05:01.357Z,90.00
2019-03-25T00:07:39.937Z,90.00
2019-03-25T00:10:15.524Z,90.30
2019-03-25T00:12:51.187Z,90.30
2019-03-25T00:15:26.696Z,90.40
2019-03-25T00:18:02.331Z,90.30
2019-03-25T00:20:37.854Z,90.30
2019-03-25T00:23:13.459Z,90.40
2019-03-25T00:25:49.156Z,90.40
2019-03-25T00:28:24.570Z,90.70
2019-03-25T00:31:00.337Z,90.80
2019-03-25T00:33:35.955Z,90.80
2019-03-25T00:36:11.803Z,91.10
2019-03-25T00:38:47.277Z,91.10
2019-03-25T00:41:23.126Z,90.50
2019-03-25T00:43:58.948Z,90.80
2019-03-25T00:46:34.875Z,90.90
2019-03-25T00:49:10.475Z,90.80
2019-03-25T00:51:46.209Z,90.70
2019-03-25T00:54:21.693Z,91.00
2019-03-25T00:56:57.179Z,91.00
2019-03-25T00:59:32.657Z,90.80
2019-03-25T01:02:09.215Z,90.90
2019-03-25T01:04:44.797Z,90.50
2019-03-25T01:07:20.399Z,90.90
2019-03-25T01:09:55.944Z,90.90
2019-03-25T01:12:31.674Z,90.90
2019-03-25T01:15:07.540Z,90.60
2019-03-25T01:17:43.280Z,90.70
2019-03-25T01:20:19.139Z,90.40
2019-03-25T01:22:54.858Z,90.00
2019-03-25T01:25:30.440Z,89.70
2019-03-25T01:28:06.924Z,90.20
2019-03-25T01:30:42.496Z,89.50
2019-03-25T01:33:18.165Z,89.60
2019-03-25T01:35:53.716Z,89.10
2019-03-25T01:38:29.313Z,89.40
2019-03-25T01:41:04.864Z,89.60
2019-03-25T01:43:40.624Z,89.70
2019-03-25T01:46:16.314Z,88.60
2019-03-25T01:48:51.908Z,88.10
2019-03-25T01:51:27.479Z,88.90
2019-03-25T01:54:03.169Z,88.20
2019-03-25T01:56:38.910Z,88.60
2019-03-25T01:59:14.575Z,88.50
2019-03-25T02:01:50.136Z,88.90
2019-03-25T02:04:25.853Z,89.30
2019-03-25T02:07:02.445Z,89.00
2019-03-25T02:09:40.836Z,89.00
2019-03-25T02:12:16.223Z,89.80
2019-03-25T02:14:51.821Z,89.10
2019-03-25T02:17:27.373Z,90.00
2019-03-25T02:20:03.187Z,89.10
2019-03-25T02:22:38.823Z,89.40
2019-03-25T02:25:24.906Z,89.20
2019-03-25T02:27:51.723Z,90.50
2019-03-25T02:30:27.197Z,90.60
2019-03-25T02:33:02.612Z,90.70
2019-03-25T02:35:38.239Z,90.70
2019-03-25T02:38:13.755Z,90.90
2019-03-25T02:40:49.400Z,91.00
2019-03-25T02:43:25.066Z,91.40
2019-03-25T02:46:00.755Z,91.20
2019-03-25T02:48:36.322Z,91.60
2019-03-25T02:51:12.167Z,91.60
2019-03-25T02:53:47.738Z,91.60
2019-03-25T02:56:23.233Z,91.60
2019-03-25T02:58:58.930Z,91.60
2019-03-25T03:01:35.470Z,91.60
2019-03-25T03:04:12.088Z,91.80
2019-03-25T03:06:47.668Z,91.60
2019-03-25T03:09:23.222Z,91.60
2019-03-25T03:11:58.751Z,91.60
2019-03-25T03:14:34.423Z,91.50
2019-03-25T03:17:09.845Z,91.70
2019-03-25T03:19:45.311Z,91.40
2019-03-25T03:22:21.002Z,91.50
2019-03-25T03:24:56.501Z,91.40
2019-03-25T03:27:32.049Z,91.30
2019-03-25T03:30:07.679Z,91.50
2019-03-25T03:32:43.121Z,91.50
2019-03-25T03:35:18.764Z,91.50
2019-03-25T03:37:54.280Z,91.80
2019-03-25T03:40:30.770Z,92.00
2019-03-25T03:43:06.284Z,92.00
2019-03-25T03:45:41.924Z,91.90
2019-03-25T03:48:17.512Z,92.10
2019-03-25T03:50:53.137Z,92.00
2019-03-25T03:53:28.658Z,91.90
2019-03-25T03:56:12.688Z,91.80
2019-03-25T03:58:41.930Z,91.90
2019-03-25T04:01:17.354Z,92.10
2019-03-25T04:03:52.945Z,92.10
2019-03-25T04:06:28.470Z,92.20
2019-03-25T04:09:05.434Z,92.10
2019-03-25T04:11:40.990Z,92.30
2019-03-25T04:14:16.692Z,92.50
2019-03-25T04:16:52.252Z,92.60
2019-03-25T04:19:30.321Z,92.90
2019-03-25T04:22:21.338Z,92.90
2019-03-25T04:24:56.918Z,92.90
2019-03-25T04:27:32.492Z,92.90
2019-03-25T04:30:08.158Z,93.50
2019-03-25T04:32:43.814Z,93.60
2019-03-25T04:35:19.519Z,93.60
2019-03-25T04:37:56.454Z,93.50
2019-03-25T04:40:32.228Z,93.30
2019-03-25T04:43:07.720Z,92.90
2019-03-25T04:45:43.268Z,93.20
2019-03-25T04:48:18.764Z,93.10
2019-03-25T04:50:54.381Z,93.10
2019-03-25T04:53:29.899Z,93.50
2019-03-25T04:56:05.363Z,93.10
2019-03-25T04:58:41.031Z,93.20
2019-03-25T05:01:16.704Z,93.50
2019-03-25T05:03:52.295Z,93.60
2019-03-25T05:06:27.832Z,93.90
2019-03-25T05:09:04.720Z,94.00
2019-03-25T05:11:40.375Z,94.20
2019-03-25T05:14:17.009Z,94.50
2019-03-25T05:16:52.775Z,95.00
2019-03-25T05:19:28.441Z,95.10
2019-03-25T05:22:03.895Z,95.60
2019-03-25T05:24:39.295Z,95.80
2019-03-25T05:27:15.662Z,96.10
2019-03-25T05:29:51.121Z,96.30
2019-03-25T05:32:26.902Z,96.50
2019-03-25T05:35:02.456Z,96.70
2019-03-25T05:37:38.995Z,96.70
2019-03-25T05:40:14.400Z,97.00
2019-03-25T05:42:49.985Z,96.90
2019-03-25T05:45:25.408Z,96.90
2019-03-25T05:48:00.952Z,97.20
2019-03-25T05:50:36.499Z,97.20
2019-03-25T05:53:12.140Z,97.10
2019-03-25T05:55:47.660Z,96.90
2019-03-25T05:58:23.306Z,96.90
2019-03-25T06:00:58.899Z,96.90
2019-03-25T06:03:35.742Z,96.90
2019-03-25T06:06:11.512Z,96.80
2019-03-25T06:08:47.075Z,96.80
2019-03-25T06:11:22.592Z,96.60
2019-03-25T06:13:58.138Z,96.40
2019-03-25T06:16:33.789Z,96.20
2019-03-25T06:19:09.374Z,96.10
2019-03-25T06:21:45.222Z,96.40
2019-03-25T06:24:20.745Z,96.60
2019-03-25T06:26:56.383Z,96.80
2019-03-25T06:29:32.189Z,96.70
2019-03-25T06:32:07.663Z,96.70
2019-03-25T06:34:43.131Z,96.80
2019-03-25T06:37:18.901Z,96.60
2019-03-25T06:39:54.578Z,96.50
2019-03-25T06:42:30.301Z,96.60
2019-03-25T06:45:07.447Z,96.70
2019-03-25T06:47:43.007Z,96.50
2019-03-25T06:50:18.530Z,96.50
2019-03-25T06:52:54.121Z,96.40
2019-03-25T06:55:30.017Z,96.00
2019-03-25T06:58:05.716Z,95.70
2019-03-25T07:00:41.240Z,95.40
2019-03-25T07:03:19.706Z,95.00
2019-03-25T07:05:55.316Z,94.60
2019-03-25T07:08:30.744Z,94.50
2019-03-25T07:11:06.649Z,94.10
2019-03-25T07:13:42.148Z,94.10
2019-03-25T07:16:34.415Z,93.10
2019-03-25T07:19:06.654Z,93.10
2019-03-25T07:21:42.326Z,93.00
2019-03-25T07:24:17.846Z,92.70
2019-03-25T07:26:55.578Z,92.70
2019-03-25T07:29:31.356Z,92.70
2019-03-25T07:32:09.058Z,92.40
2019-03-25T07:34:48.201Z,91.70
2019-03-25T07:37:23.857Z,91.60
2019-03-25T07:39:59.392Z,91.60
2019-03-25T07:42:35.117Z,91.60
2019-03-25T07:45:10.638Z,91.00
2019-03-25T07:47:46.208Z,91.50
2019-03-25T07:50:22.711Z,91.20
2019-03-25T07:52:58.537Z,91.20
2019-03-25T07:55:34.089Z,90.90
2019-03-25T07:58:09.807Z,91.40
2019-03-25T08:00:45.440Z,91.30
2019-03-25T08:03:28.659Z,91.30
2019-03-25T08:06:07.330Z,91.40
2019-03-25T08:08:43.806Z,91.20
2019-03-25T08:11:19.494Z,90.90
2019-03-25T08:13:55.171Z,90.60
2019-03-25T08:16:30.943Z,89.30
2019-03-25T08:19:06.603Z,89.40
2019-03-25T08:21:43.127Z,86.30
2019-03-25T08:24:18.765Z,85.20
2019-03-25T08:26:54.417Z,84.50
2019-03-25T08:29:33.031Z,83.70
2019-03-25T08:32:21.611Z,84.00
2019-03-25T08:34:55.825Z,83.60
2019-03-25T08:37:31.383Z,83.60
2019-03-25T08:40:06.938Z,81.90
2019-03-25T08:42:42.655Z,82.30
2019-03-25T08:45:18.268Z,82.60
2019-03-25T08:47:53.933Z,81.60
2019-03-25T08:50:29.566Z,81.40
2019-03-25T08:53:05.139Z,79.10
2019-03-25T08:55:40.590Z,79.70
2019-03-25T08:58:16.254Z,77.70
2019-03-25T09:00:51.779Z,76.60
2019-03-25T09:03:27.438Z,72.50
2019-03-25T09:06:06.086Z,71.30
2019-03-25T09:08:41.750Z,70.70
2019-03-25T09:11:17.360Z,70.10
2019-03-25T09:13:52.877Z,71.50
2019-03-25T09:16:28.634Z,72.90
2019-03-25T09:19:04.111Z,71.90
2019-03-25T09:21:39.762Z,70.80
2019-03-25T09:24:15.102Z,70.40
2019-03-25T09:26:50.825Z,71.30
2019-03-25T09:29:26.501Z,71.20
2019-03-25T09:32:02.458Z,72.50
2019-03-25T09:34:38.053Z,71.60
2019-03-25T09:37:13.625Z,73.60
2019-03-25T09:39:49.199Z,71.90
2019-03-25T09:42:24.809Z,72.00
2019-03-25T09:45:00.384Z,72.20
2019-03-25T09:47:37.866Z,71.50
2019-03-25T09:50:13.895Z,77.40
2019-03-25T09:52:49.614Z,78.90
2019-03-25T09:55:25.184Z,80.10
2019-03-25T09:58:00.807Z,82.40
2019-03-25T10:00:36.572Z,88.90
2019-03-25T10:03:12.095Z,92.60
2019-03-25T10:05:48.794Z,93.30
2019-03-25T10:08:24.552Z,95.40
2019-03-25T10:10:59.994Z,94.70
2019-03-25T10:13:35.682Z,94.40
2019-03-25T10:16:11.352Z,93.90
2019-03-25T10:18:47.168Z,92.80
2019-03-25T10:21:22.776Z,91.30
2019-03-25T10:23:58.328Z,90.40
2019-03-25T10:26:34.936Z,88.80
2019-03-25T10:29:10.390Z,90.60
2019-03-25T10:31:46.022Z,88.80
2019-03-25T10:34:21.702Z,81.40
2019-03-25T10:36:57.478Z,80.30
2019-03-25T10:39:33.178Z,80.90
2019-03-25T10:42:08.652Z,82.00
2019-03-25T10:44:44.163Z,78.90
2019-03-25T10:47:19.641Z,77.00
2019-03-25T10:49:55.223Z,74.90
2019-03-25T10:52:30.721Z,69.30
2019-03-25T10:55:07.858Z,66.60
2019-03-25T10:57:43.751Z,64.40
2019-03-25T11:00:19.373Z,62.90
2019-03-25T11:02:55.019Z,57.80
2019-03-25T11:05:30.535Z,62.20
2019-03-25T11:08:06.078Z,64.10
2019-03-25T11:10:41.709Z,64.30
2019-03-25T11:13:17.347Z,64.80
2019-03-25T11:15:53.021Z,62.00
2019-03-25T11:18:28.597Z,61.50
2019-03-25T11:21:04.143Z,59.30
2019-03-25T11:23:39.760Z,57.60
2019-03-25T11:26:18.232Z,57.10
2019-03-25T11:28:53.763Z,58.50
2019-03-25T11:31:29.302Z,56.10
2019-03-25T11:34:04.770Z,56.10
2019-03-25T11:36:40.315Z,57.90
2019-03-25T11:39:16.846Z,57.20
2019-03-25T11:41:52.229Z,58.70
2019-03-25T11:44:29.080Z,61.70
2019-03-25T11:47:04.747Z,62.00
2019-03-25T11:49:40.336Z,67.90
2019-03-25T11:52:17.490Z,72.40
2019-03-25T11:54:53.079Z,74.50
2019-03-25T11:57:28.581Z,78.10
2019-03-25T12:00:05.188Z,76.00
2019-03-25T12:02:40.627Z,71.80
2019-03-25T12:05:16.288Z,73.80
2019-03-25T12:07:51.751Z,69.00
2019-03-25T12:10:27.299Z,67.00
2019-03-25T12:13:02.978Z,68.90
2019-03-25T12:15:38.465Z,67.20
2019-03-25T12:18:14.229Z,65.30
2019-03-25T12:20:49.723Z,63.90
2019-03-25T12:23:26.609Z,63.30
2019-03-25T12:26:02.503Z,63.90
2019-03-25T12:28:38.012Z,66.60
2019-03-25T12:31:13.555Z,73.60
2019-03-25T12:33:49.100Z,77.80
2019-03-25T12:36:24.670Z,78.80
2019-03-25T12:39:00.286Z,83.00
2019-03-25T12:41:36.090Z,82.80
2019-03-25T12:44:11.856Z,80.60
2019-03-25T12:46:47.493Z,79.80
2019-03-25T12:49:23.150Z,76.10
2019-03-25T12:51:58.697Z,75.80
2019-03-25T12:54:34.284Z,77.40
2019-03-25T12:57:09.760Z,74.20
2019-03-25T12:59:45.406Z,72.20
2019-03-25T13:02:20.950Z,72.80
2019-03-25T13:04:57.438Z,71.80
2019-03-25T13:07:32.885Z,70.60
2019-03-25T13:10:08.489Z,70.40
2019-03-25T13:12:44.090Z,75.60
2019-03-25T13:15:19.908Z,93.60
2019-03-25T13:17:55.876Z,95.30
2019-03-25T13:20:31.499Z,95.30
2019-03-25T13:23:07.143Z,96.80
2019-03-25T13:25:42.770Z,97.20
2019-03-25T13:28:18.408Z,97.10
2019-03-25T13:30:54.137Z,99.90
2019-03-25T13:33:29.710Z,97.90
2019-03-25T13:36:05.613Z,97.00
2019-03-25T13:38:41.187Z,96.20
2019-03-25T13:41:16.794Z,95.20
2019-03-25T13:43:52.318Z,94.70
2019-03-25T13:46:27.742Z,92.70
2019-03-25T13:49:03.555Z,91.60
2019-03-25T13:51:39.026Z,91.00
2019-03-25T13:54:14.681Z,91.30
2019-03-25T13:56:50.467Z,90.40
2019-03-25T13:59:27.558Z,88.50
2019-03-25T14:02:03.356Z,90.50
2019-03-25T14:04:38.929Z,91.00
2019-03-25T14:07:14.486Z,87.60
2019-03-25T14:09:50.077Z,89.90
2019-03-25T14:12:25.809Z,85.90
2019-03-25T14:15:01.365Z,84.50
2019-03-25T14:17:36.974Z,79.10
2019-03-25T14:20:12.467Z,82.70
2019-03-25T14:22:48.143Z,79.70
2019-03-25T14:25:23.829Z,80.10
2019-03-25T14:27:59.446Z,80.10
2019-03-25T14:30:34.950Z,77.60
2019-03-25T14:33:10.751Z,78.10
2019-03-25T14:35:46.430Z,78.40
2019-03-25T14:38:22.253Z,80.50
2019-03-25T14:40:57.871Z,78.60
2019-03-25T14:43:33.496Z,78.10
2019-03-25T14:46:09.056Z,81.00
2019-03-25T14:48:46.156Z,77.40
2019-03-25T14:51:21.756Z,76.50
2019-03-25T14:53:57.431Z,74.50
2019-03-25T14:56:33.088Z,77.00
2019-03-25T14:59:08.579Z,75.50
2019-03-25T15:01:47.214Z,74.60
2019-03-25T15:04:24.055Z,72.20
2019-03-25T15:06:59.535Z,71.70
2019-03-25T15:09:35.294Z,69.40
2019-03-25T15:12:10.663Z,68.30
2019-03-25T15:14:46.256Z,71.80
2019-03-25T15:17:21.735Z,71.20
2019-03-25T15:19:57.321Z,69.90
2019-03-25T15:22:32.904Z,70.80
2019-03-25T15:25:08.784Z,71.00
2019-03-25T15:27:44.498Z,71.90
2019-03-25T15:30:20.701Z,71.20
2019-03-25T15:32:56.219Z,70.50
2019-03-25T15:35:31.903Z,70.00
2019-03-25T15:38:08.379Z,72.70
2019-03-25T15:40:44.219Z,70.60
2019-03-25T15:43:19.802Z,71.00
2019-03-25T15:45:55.468Z,72.30
2019-03-25T15:48:31.953Z,73.60
2019-03-25T15:51:07.474Z,72.10
2019-03-25T15:53:43.111Z,72.60
2019-03-25T15:56:18.721Z,70.70
2019-03-25T15:58:54.307Z,73.60
2019-03-25T16:01:29.931Z,71.30
2019-03-25T16:04:05.694Z,71.90
2019-03-25T16:06:41.347Z,71.70
2019-03-25T16:09:16.957Z,72.40
2019-03-25T16:11:52.559Z,71.90
2019-03-25T16:14:28.182Z,72.90
2019-03-25T16:17:03.720Z,72.80
2019-03-25T16:19:39.277Z,74.20
2019-03-25T16:22:14.810Z,74.70
2019-03-25T16:24:50.468Z,74.20
2019-03-25T16:27:26.017Z,74.50
2019-03-25T16:30:01.530Z,74.30
2019-03-25T16:32:37.215Z,75.50
2019-03-25T16:35:12.896Z,73.60
2019-03-25T16:37:48.427Z,73.80
2019-03-25T16:40:24.063Z,74.30
2019-03-25T16:42:59.751Z,73.70
2019-03-25T16:45:35.165Z,74.60
2019-03-25T16:48:10.708Z,75.00
2019-03-25T16:50:46.405Z,75.70
2019-03-25T16:53:21.995Z,77.60
2019-03-25T16:55:57.667Z,77.10
2019-03-25T16:58:33.355Z,78.40
2019-03-25T17:01:10.251Z,78.00
2019-03-25T17:03:46.161Z,79.30
2019-03-25T17:06:22.117Z,79.60
2019-03-25T17:08:57.899Z,78.60
2019-03-25T17:11:33.369Z,80.20
2019-03-25T17:14:08.755Z,80.50
2019-03-25T17:16:44.108Z,81.10
2019-03-25T17:19:20.615Z,80.00
2019-03-25T17:21:58.423Z,80.30
2019-03-25T17:24:33.397Z,80.20
2019-03-25T17:27:09.077Z,81.80
2019-03-25T17:29:45.558Z,81.90
2019-03-25T17:32:21.261Z,82.10
2019-03-25T17:34:56.924Z,82.30
2019-03-25T17:37:32.744Z,82.90
2019-03-25T17:40:08.473Z,82.50
2019-03-25T17:42:43.957Z,84.20
2019-03-25T17:45:19.642Z,82.60
2019-03-25T17:47:55.126Z,83.30
2019-03-25T17:50:30.826Z,83.20
2019-03-25T17:53:06.651Z,83.20
2019-03-25T17:55:42.275Z,83.50
2019-03-25T17:58:17.892Z,85.70
2019-03-25T18:01:08.368Z,83.50
2019-03-25T18:03:43.960Z,84.60
2019-03-25T18:06:20.449Z,84.30
2019-03-25T18:08:57.051Z,85.20
2019-03-25T18:11:34.576Z,84.80
2019-03-25T18:14:10.193Z,86.30
2019-03-25T18:16:45.847Z,85.50
2019-03-25T18:19:21.392Z,85.50
2019-03-25T18:21:56.999Z,84.90
2019-03-25T18:24:32.583Z,87.00
2019-03-25T18:27:08.351Z,85.50
2019-03-25T18:29:43.862Z,86.70
2019-03-25T18:32:19.509Z,87.20
2019-03-25T18:34:54.963Z,85.90
2019-03-25T18:37:30.801Z,86.00
2019-03-25T18:40:06.494Z,86.50
2019-03-25T18:42:42.345Z,86.70
2019-03-25T18:45:17.897Z,86.80
2019-03-25T18:47:53.602Z,86.30
2019-03-25T18:50:29.249Z,86.90
2019-03-25T18:53:04.829Z,84.70
2019-03-25T18:55:40.232Z,85.60
2019-03-25T18:58:15.846Z,84.60
2019-03-25T19:00:51.319Z,85.60
2019-03-25T19:03:30.076Z,86.70
2019-03-25T19:06:05.744Z,87.00
2019-03-25T19:08:42.746Z,87.30
2019-03-25T19:11:18.158Z,87.90
2019-03-25T19:13:55.097Z,86.10
2019-03-25T19:16:30.894Z,85.80
2019-03-25T19:19:06.639Z,85.80
2019-03-25T19:21:42.665Z,87.30
2019-03-25T19:24:20.668Z,86.20
2019-03-25T19:26:56.375Z,85.60
2019-03-25T19:29:32.191Z,86.40
2019-03-25T19:32:07.749Z,88.10
2019-03-25T19:34:43.415Z,87.40
2019-03-25T19:37:18.938Z,86.70
2019-03-25T19:39:57.450Z,87.50
2019-03-25T19:42:32.965Z,87.90
2019-03-25T19:45:08.993Z,89.50
2019-03-25T19:47:44.754Z,88.40
2019-03-25T19:50:21.760Z,87.90
2019-03-25T19:52:57.593Z,88.70
2019-03-25T19:55:33.244Z,89.10
2019-03-25T19:58:09.066Z,88.50
2019-03-25T20:00:44.715Z,88.40
2019-03-25T20:03:28.477Z,89.00
2019-03-25T20:06:05.860Z,88.10
2019-03-25T20:08:41.554Z,88.50
2019-03-25T20:11:17.200Z,89.80
2019-03-25T20:13:52.939Z,88.40
2019-03-25T20:16:28.693Z,89.10
2019-03-25T20:19:04.332Z,89.10
2019-03-25T20:21:40.244Z,88.50
2019-03-25T20:24:16.915Z,87.60
2019-03-25T20:26:52.565Z,89.50
2019-03-25T20:29:28.219Z,90.10
2019-03-25T20:32:03.923Z,89.80
2019-03-25T20:34:39.674Z,89.50
2019-03-25T20:37:15.462Z,90.00
2019-03-25T20:39:50.891Z,90.00
2019-03-25T20:42:26.448Z,88.10
2019-03-25T20:45:02.141Z,88.50
2019-03-25T20:47:38.334Z,87.40
2019-03-25T20:50:13.995Z,87.80
2019-03-25T20:52:49.516Z,87.50
2019-03-25T20:55:25.141Z,86.70
2019-03-25T20:58:00.779Z,87.00
2019-03-25T21:00:53.539Z,85.00
2019-03-25T21:03:29.105Z,87.80
2019-03-25T21:06:04.644Z,88.30
2019-03-25T21:08:40.389Z,89.10
2019-03-25T21:11:16.023Z,89.80
2019-03-25T21:13:51.680Z,87.90
2019-03-25T21:16:27.324Z,88.70
2019-03-25T21:19:02.998Z,88.30
2019-03-25T21:21:38.672Z,89.00
2019-03-25T21:24:14.273Z,89.00
2019-03-25T21:26:49.960Z,89.30
2019-03-25T21:29:25.604Z,89.50
2019-03-25T21:32:05.617Z,89.00
2019-03-25T21:34:41.492Z,90.10
2019-03-25T21:37:17.033Z,90.00
2019-03-25T21:39:52.535Z,88.40
2019-03-25T21:42:29.230Z,89.70
2019-03-25T21:45:05.647Z,88.70
2019-03-25T21:47:41.243Z,90.00
2019-03-25T21:50:16.922Z,90.10
2019-03-25T21:52:52.513Z,90.00
2019-03-25T21:55:29.205Z,89.00
2019-03-25T21:58:04.815Z,88.80
2019-03-25T22:00:40.478Z,88.80
2019-03-25T22:03:16.005Z,89.30
2019-03-25T22:05:51.865Z,90.20
2019-03-25T22:08:27.438Z,90.50
2019-03-25T22:11:03.077Z,90.20
2019-03-25T22:13:38.632Z,88.60
2019-03-25T22:16:14.180Z,90.40
2019-03-25T22:18:50.918Z,90.30
2019-03-25T22:21:26.368Z,90.40
2019-03-25T22:24:01.847Z,90.20
2019-03-25T22:26:37.426Z,90.40
2019-03-25T22:29:12.936Z,90.70
2019-03-25T22:31:48.532Z,90.90
2019-03-25T22:34:24.017Z,90.80
2019-03-25T22:36:59.613Z,90.50
2019-03-25T22:39:35.121Z,90.80
2019-03-25T22:42:10.911Z,90.70
2019-03-25T22:44:47.865Z,90.70
2019-03-25T22:47:23.625Z,90.90
2019-03-25T22:49:59.187Z,90.50
2019-03-25T22:52:38.843Z,90.50
2019-03-25T22:55:15.148Z,90.50
2019-03-25T22:57:56.327Z,90.60
2019-03-25T23:00:48.793Z,90.40
2019-03-25T23:03:24.390Z,90.00
2019-03-25T23:05:59.820Z,90.10
2019-03-25T23:08:35.426Z,90.30
2019-03-25T23:11:11.092Z,90.40
2019-03-25T23:13:46.591Z,90.90
2019-03-25T23:16:22.038Z,90.60
2019-03-25T23:18:57.655Z,90.50
2019-03-25T23:21:33.323Z,91.10
2019-03-25T23:24:08.962Z,90.70
2019-03-25T23:26:44.456Z,90.30
2019-03-25T23:29:20.058Z,91.20
2019-03-25T23:31:55.767Z,90.70
2019-03-25T23:34:31.395Z,90.90
2019-03-25T23:37:06.804Z,91.10
2019-03-25T23:39:42.515Z,90.90
2019-03-25T23:42:19.711Z,90.60
2019-03-25T23:44:55.338Z,91.10
2019-03-25T23:47:41.797Z,90.20
2019-03-25T23:50:29.869Z,90.70
2019-03-25T23:53:05.434Z,90.30
2019-03-25T23:55:42.511Z,90.90
2019-03-25T23:58:18.045Z,90.90
